Time;durP1;ratioP1;P1;durP2;ratioP2;P2;SDS_P1;SDS_P2;PMS_P1;PMS_P2;Temp;Humidity;BMP_temperature;BMP_pressure;BME280_temperature;BME280_humidity;BME280_pressure;Samples;Min_cycle;Max_cycle;Signal;HPM_P1;HPM_P2
2022/10/22 00:01:28;;;;;;;1.30;1.20;;;;;;;17.86;51.59;93164.13;5028360;28;20048;-86
2022/10/22 00:03:53;;;;;;;2.83;2.03;;;;;;;17.87;51.65;93160.88;5012901;28;20511;-87
2022/10/22 00:06:19;;;;;;;3.47;1.92;;;;;;;17.86;51.75;93150.44;5024012;28;20045;-87
2022/10/22 00:08:44;;;;;;;1.90;1.50;;;;;;;17.85;51.71;93154.44;5026168;28;20041;-86
2022/10/22 00:11:13;;;;;;;1.73;1.30;;;;;;;17.85;51.67;93149.72;5023462;28;20091;-91
2022/10/22 00:13:38;;;;;;;1.90;1.67;;;;;;;17.86;52.10;93145.72;5028622;28;20041;-86
2022/10/22 00:16:04;;;;;;;1.90;1.45;;;;;;;17.88;51.79;93156.16;5041229;28;20048;-87
2022/10/22 00:18:29;;;;;;;1.60;1.50;;;;;;;17.87;51.99;93149.19;5041743;28;20041;-87
2022/10/22 00:20:55;;;;;;;2.35;1.65;;;;;;;17.86;51.63;93156.66;5020476;28;20049;-88
2022/10/22 00:23:20;;;;;;;1.63;1.40;;;;;;;17.85;51.66;93148.97;5008112;28;20041;-89
2022/10/22 00:25:46;;;;;;;1.92;1.50;;;;;;;17.86;51.97;93156.66;5024784;28;20040;-86
2022/10/22 00:28:11;;;;;;;1.48;1.38;;;;;;;17.88;51.99;93156.16;5027589;28;20507;-86
2022/10/22 00:30:37;;;;;;;1.85;1.60;;;;;;;17.86;52.06;93153.19;5013908;28;20041;-86
2022/10/22 00:33:02;;;;;;;2.25;1.90;;;;;;;17.87;52.16;93163.63;5012294;28;20034;-87
2022/10/22 00:35:27;;;;;;;2.20;1.50;;;;;;;17.85;51.78;93152.44;4995112;28;20060;-87
2022/10/22 00:37:53;;;;;;;1.92;1.30;;;;;;;17.87;51.65;93152.69;5032210;28;20037;-86
2022/10/22 00:40:18;;;;;;;1.92;1.20;;;;;;;17.87;51.93;93146.47;5017476;28;20037;-87
2022/10/22 00:42:44;;;;;;;1.70;1.55;;;;;;;17.88;51.73;93151.44;5030294;28;20052;-86
2022/10/22 00:45:09;;;;;;;2.00;1.60;;;;;;;17.88;51.92;93153.41;4994838;28;20107;-86
2022/10/22 00:47:42;;;;;;;3.03;1.45;;;;;;;17.86;51.86;93155.94;5029308;28;20411;-89
2022/10/22 00:50:16;;;;;;;2.08;1.23;;;;;;;17.86;51.77;93153.94;5012397;28;20038;-86
2022/10/22 00:52:41;;;;;;;3.13;1.40;;;;;;;17.87;52.23;93158.16;4995344;28;20469;-88
2022/10/22 00:55:07;;;;;;;1.92;1.40;;;;;;;17.85;52.07;93149.72;5016801;28;20037;-86
2022/10/22 00:57:32;;;;;;;2.10;1.58;;;;;;;17.84;52.41;93150.97;5031406;28;20127;-87
2022/10/22 00:59:58;;;;;;;1.65;1.50;;;;;;;17.85;52.00;93138.03;5048042;28;20102;-86
2022/10/22 01:02:23;;;;;;;1.33;1.23;;;;;;;17.86;51.66;93134.78;5030406;28;20507;-87
2022/10/22 01:04:48;;;;;;;1.70;1.33;;;;;;;17.87;51.83;93125.34;5030775;28;20553;-86
2022/10/22 01:07:16;;;;;;;1.75;1.20;;;;;;;17.85;51.71;93119.63;5030269;28;20049;-87
2022/10/22 01:09:48;;;;;;;1.92;1.48;;;;;;;17.84;52.12;93115.41;5015064;28;20100;-87
2022/10/22 01:12:17;;;;;;;1.80;1.70;;;;;;;17.84;51.75;93109.94;4994784;28;20273;-87
2022/10/22 01:15:04;;;;;;;1.23;1.13;;;;;;;17.87;51.52;93114.41;5011777;28;20091;-87
2022/10/22 01:17:37;;;;;;;1.45;1.05;;;;;;;17.86;51.71;93120.38;5021109;28;20049;-86
2022/10/22 01:20:23;;;;;;;2.10;1.30;;;;;;;17.84;52.01;93101.00;5014607;28;20049;-85
2022/10/22 01:23:29;;;;;;;1.33;1.08;;;;;;;17.86;51.70;93101.97;4998570;28;20037;-87
2022/10/22 01:26:02;;;;;;;1.23;1.10;;;;;;;17.85;51.53;93105.22;5016344;28;20368;-87
2022/10/22 01:28:49;;;;;;;1.50;1.20;;;;;;;17.84;51.73;93092.81;5014791;28;20028;-86
2022/10/22 01:31:15;;;;;;;1.80;1.48;;;;;;;17.84;52.13;93101.00;5013435;28;20073;-86
2022/10/22 01:33:41;;;;;;;1.45;1.02;;;;;;;17.83;51.56;93097.53;4998286;28;20044;-87
2022/10/22 01:36:07;;;;;;;1.58;1.35;;;;;;;17.81;51.95;93094.56;5000514;28;20096;-86
2022/10/22 01:38:33;;;;;;;1.40;1.27;;;;;;;17.83;51.79;93088.59;5014180;28;20029;-87
2022/10/22 01:40:58;;;;;;;1.73;1.48;;;;;;;17.85;51.88;93084.09;5012586;28;20118;-86
2022/10/22 01:43:23;;;;;;;1.85;1.33;;;;;;;17.85;52.17;93083.34;4997294;28;20514;-86
2022/10/22 01:45:51;;;;;;;1.75;1.33;;;;;;;17.85;51.86;93086.09;4997751;28;20400;-86
2022/10/22 01:48:16;;;;;;;1.98;1.42;;;;;;;17.83;52.15;93083.13;4996944;28;20090;-86
2022/10/22 01:51:00;;;;;;;2.03;1.33;;;;;;;17.84;52.13;93088.06;5042357;28;20045;-87
2022/10/22 01:53:35;;;;;;;1.30;1.20;;;;;;;17.84;51.82;93084.59;5027975;28;20103;-86
2022/10/22 01:56:22;;;;;;;1.33;1.20;;;;;;;17.84;51.68;93081.88;5035019;28;20056;-86
2022/10/22 01:58:54;;;;;;;2.75;1.00;;;;;;;17.84;51.65;93090.06;5030547;28;20032;-87
2022/10/22 02:01:29;;;;;;;1.50;1.35;;;;;;;17.81;51.84;93086.38;5012922;28;20049;-88
2022/10/22 02:04:14;;;;;;;2.38;1.60;;;;;;;17.84;51.98;93090.06;5014225;28;20033;-87
2022/10/22 02:06:40;;;;;;;1.30;1.08;;;;;;;17.80;52.14;93087.63;5046407;28;20518;-87
2022/10/22 02:09:05;;;;;;;1.77;1.38;;;;;;;17.83;51.81;93094.06;4996399;28;20041;-86
2022/10/22 02:11:30;;;;;;;1.50;1.15;;;;;;;17.84;51.92;93084.59;5022205;28;20044;-86
2022/10/22 02:13:58;;;;;;;3.08;0.93;;;;;;;17.85;51.72;93088.81;5030062;28;20044;-87
2022/10/22 02:16:28;;;;;;;1.33;1.20;;;;;;;17.83;51.98;93075.66;5027600;28;20149;-87
2022/10/22 02:18:54;;;;;;;1.98;1.10;;;;;;;17.83;52.10;93069.44;4997696;28;20055;-87
2022/10/22 02:21:20;;;;;;;1.10;1.00;;;;;;;17.84;52.12;93060.72;5012409;28;20511;-87
2022/10/22 02:23:45;;;;;;;0.82;0.75;;;;;;;17.83;51.61;93056.53;5013331;28;20033;-87
2022/10/22 02:26:19;;;;;;;2.00;1.25;;;;;;;17.83;51.82;93053.03;5012653;28;20056;-87
2022/10/22 02:28:51;;;;;;;1.40;1.13;;;;;;;17.86;51.81;93052.03;5014068;28;20041;-86
2022/10/22 02:31:20;;;;;;;1.15;0.90;;;;;;;17.82;51.52;93049.56;5012826;28;20033;-87
2022/10/22 02:33:47;;;;;;;2.22;0.90;;;;;;;17.83;51.65;93045.59;4993898;28;20034;-87
2022/10/22 02:36:14;;;;;;;1.42;1.00;;;;;;;17.83;51.60;93031.91;5001401;28;20045;-87
2022/10/22 02:38:39;;;;;;;1.33;0.90;;;;;;;17.83;51.77;93039.38;5013334;28;20032;-86
2022/10/22 02:41:05;;;;;;;0.80;0.70;;;;;;;17.82;51.85;93057.78;4996344;28;20391;-86
2022/10/22 02:43:30;;;;;;;1.42;1.00;;;;;;;17.81;51.56;93061.75;5029396;28;20033;-86
2022/10/22 02:45:55;;;;;;;3.00;0.80;;;;;;;17.81;51.83;93048.81;5013146;28;20036;-87
2022/10/22 02:48:21;;;;;;;1.05;0.77;;;;;;;17.83;51.53;93059.25;5012578;28;20507;-86
2022/10/22 02:50:46;;;;;;;2.35;1.02;;;;;;;17.84;51.61;93077.13;5012793;28;20037;-86
2022/10/22 02:53:12;;;;;;;1.35;1.15;;;;;;;17.82;51.86;93076.91;5012645;28;20495;-86
2022/10/22 02:55:37;;;;;;;1.13;1.02;;;;;;;17.84;51.98;93073.66;5027786;28;20403;-87
2022/10/22 02:58:02;;;;;;;1.17;0.80;;;;;;;17.81;52.08;93065.22;4998171;28;20137;-87
2022/10/22 03:00:28;;;;;;;1.77;1.10;;;;;;;17.83;51.62;93083.13;5009192;28;20087;-86
2022/10/22 03:02:54;;;;;;;1.58;1.20;;;;;;;17.83;51.75;93083.13;4993412;28;20117;-86
2022/10/22 03:05:20;;;;;;;3.13;1.08;;;;;;;17.81;51.70;93087.09;5008996;28;20033;-86
2022/10/22 03:07:45;;;;;;;1.40;1.00;;;;;;;17.83;51.68;93081.13;5011831;28;20505;-87
2022/10/22 03:10:10;;;;;;;1.05;0.93;;;;;;;17.83;51.77;93083.13;5012159;28;20045;-86
2022/10/22 03:12:37;;;;;;;0.95;0.80;;;;;;;17.82;51.57;93085.13;5012725;28;20041;-86
2022/10/22 03:15:02;;;;;;;1.52;1.00;;;;;;;17.83;51.93;93091.31;4995760;28;20067;-86
2022/10/22 03:17:28;;;;;;;0.85;0.65;;;;;;;17.83;51.59;93094.06;5013513;28;20045;-86
2022/10/22 03:19:53;;;;;;;1.02;0.93;;;;;;;17.84;51.74;93095.53;5000491;28;20045;-87
2022/10/22 03:22:21;;;;;;;1.08;0.82;;;;;;;17.81;52.07;93098.03;5003186;28;20412;-89
2022/10/22 03:24:49;;;;;;;0.88;0.80;;;;;;;17.82;51.59;93093.31;4997553;28;20095;-86
2022/10/22 03:27:14;;;;;;;1.27;0.90;;;;;;;17.81;51.96;93098.03;5028555;28;20159;-89
2022/10/22 03:29:40;;;;;;;1.10;1.00;;;;;;;17.80;51.45;93104.03;5011919;28;20120;-86
2022/10/22 03:32:05;;;;;;;1.00;0.70;;;;;;;17.81;52.16;93110.97;5045807;28;20048;-87
2022/10/22 03:34:31;;;;;;;1.20;0.88;;;;;;;17.80;51.76;93114.97;5012190;28;20033;-87
2022/10/22 03:36:56;;;;;;;1.23;0.90;;;;;;;17.77;52.23;93124.94;5001841;28;20037;-89
2022/10/22 03:39:22;;;;;;;1.10;0.93;;;;;;;17.81;51.62;93127.38;5000414;28;20094;-87
2022/10/22 03:41:47;;;;;;;1.00;0.82;;;;;;;17.79;51.96;93132.63;5028237;28;20083;-87
2022/10/22 03:44:13;;;;;;;1.05;0.77;;;;;;;17.79;51.76;93127.16;5011334;28;20033;-87
2022/10/22 03:46:39;;;;;;;1.13;0.85;;;;;;;17.82;52.01;93128.88;5012198;28;20036;-87
2022/10/22 03:49:04;;;;;;;1.48;0.90;;;;;;;17.81;51.81;93135.59;5045213;28;20357;-89
2022/10/22 03:51:29;;;;;;;0.60;0.50;;;;;;;17.81;52.00;93130.84;5006554;28;20406;-87
2022/10/22 03:53:55;;;;;;;1.10;0.98;;;;;;;17.80;51.75;93132.09;4993290;28;20099;-86
2022/10/22 03:56:20;;;;;;;1.23;1.00;;;;;;;17.79;51.84;93133.34;4996498;28;20029;-87
2022/10/22 03:58:45;;;;;;;1.27;0.90;;;;;;;17.82;51.75;93145.25;5028567;28;20044;-86
2022/10/22 04:01:11;;;;;;;0.65;0.65;;;;;;;17.80;51.78;93155.97;5028398;28;20033;-86
2022/10/22 04:03:37;;;;;;;0.68;0.68;;;;;;;17.84;51.56;93155.69;5028284;28;20095;-86
2022/10/22 04:06:07;;;;;;;0.77;0.63;;;;;;;17.81;51.54;93154.72;5015012;28;20068;-87
2022/10/22 04:08:32;;;;;;;1.13;0.70;;;;;;;17.79;51.83;93162.69;5032201;28;20483;-87
2022/10/22 04:10:58;;;;;;;1.67;0.88;;;;;;;17.81;51.74;93179.34;5015202;28;20041;-87
2022/10/22 04:13:23;;;;;;;0.90;0.70;;;;;;;17.82;52.12;93191.75;5014941;28;20041;-87
2022/10/22 04:15:50;;;;;;;0.65;0.65;;;;;;;17.81;51.76;93182.06;5016156;28;20053;-86
2022/10/22 04:18:16;;;;;;;1.05;0.73;;;;;;;17.80;51.98;93175.13;5005313;28;20143;-87
2022/10/22 04:20:42;;;;;;;2.08;1.05;;;;;;;17.80;51.98;93188.78;5039824;28;20045;-87
2022/10/22 04:23:07;;;;;;;0.80;0.80;;;;;;;17.81;52.06;93191.00;5011743;28;20041;-87
2022/10/22 04:25:33;;;;;;;0.60;0.60;;;;;;;17.81;52.00;93187.53;4997179;28;20505;-87
2022/10/22 04:27:58;;;;;;;0.98;0.63;;;;;;;17.81;51.97;93188.28;4972237;28;20057;-92
2022/10/22 04:30:23;;;;;;;0.80;0.60;;;;;;;17.81;51.90;93188.28;4971430;28;20034;-86
2022/10/22 04:32:49;;;;;;;0.75;0.65;;;;;;;17.81;51.79;93177.34;4955028;28;20038;-86
2022/10/22 04:35:14;;;;;;;1.40;0.70;;;;;;;17.80;51.82;93167.66;4955519;28;20170;-86
2022/10/22 04:37:40;;;;;;;0.70;0.70;;;;;;;17.80;51.91;93177.84;4959181;28;20042;-87
2022/10/22 04:40:06;;;;;;;1.27;0.80;;;;;;;17.80;51.95;93186.06;4974771;28;20045;-87
2022/10/22 04:42:31;;;;;;;0.90;0.80;;;;;;;17.79;51.90;93196.25;4979284;28;20553;-87
2022/10/22 04:44:56;;;;;;;0.77;0.77;;;;;;;17.78;52.21;93208.44;4955232;28;20035;-88
2022/10/22 04:47:22;;;;;;;1.20;0.85;;;;;;;17.80;51.71;93218.88;4950606;28;20057;-86
2022/10/22 04:49:47;;;;;;;0.63;0.60;;;;;;;17.79;51.67;93209.91;4971326;28;20041;-88
2022/10/22 04:52:13;;;;;;;1.92;0.77;;;;;;;17.77;51.86;93208.94;4947047;28;20037;-87
2022/10/22 04:54:38;;;;;;;0.50;0.40;;;;;;;17.78;52.17;93216.63;4974345;28;20080;-89
2022/10/22 04:57:03;;;;;;;2.65;1.00;;;;;;;17.80;51.98;93219.59;4995691;28;20037;-87
2022/10/22 04:59:29;;;;;;;0.73;0.68;;;;;;;17.81;51.88;93214.88;5048522;28;20037;-86
2022/10/22 05:01:54;;;;;;;0.47;0.47;;;;;;;17.81;51.81;93225.81;5011706;28;20223;-87
2022/10/22 05:04:20;;;;;;;0.93;0.80;;;;;;;17.79;51.84;93234.53;5011057;28;20041;-87
2022/10/22 05:06:45;;;;;;;0.73;0.60;;;;;;;17.80;51.88;93243.47;5011398;28;20045;-87
2022/10/22 05:09:15;;;;;;;1.27;0.80;;;;;;;17.83;51.91;93245.19;5001115;28;20036;-87
2022/10/22 05:11:44;;;;;;;0.68;0.60;;;;;;;17.80;51.67;93244.22;5027823;28;20037;-90
2022/10/22 05:14:09;;;;;;;0.82;0.65;;;;;;;17.80;51.89;93254.41;5035476;28;20048;-87
2022/10/22 05:16:36;;;;;;;0.70;0.50;;;;;;;17.80;51.69;93260.63;5034371;28;20033;-86
2022/10/22 05:19:02;;;;;;;0.70;0.50;;;;;;;17.80;52.00;93268.81;5020052;28;20049;-87
2022/10/22 05:21:27;;;;;;;0.98;0.73;;;;;;;17.80;51.83;93274.28;5032176;28;20387;-86
2022/10/22 05:23:53;;;;;;;1.17;0.77;;;;;;;17.79;51.83;93270.06;5014525;28;20033;-87
2022/10/22 05:26:19;;;;;;;0.65;0.60;;;;;;;17.80;51.94;93270.81;5034254;28;20036;-86
2022/10/22 05:28:46;;;;;;;1.83;0.93;;;;;;;17.79;51.74;93270.06;5034153;28;20040;-86
2022/10/22 05:31:11;;;;;;;0.55;0.40;;;;;;;17.79;51.68;93267.34;5017046;28;20036;-88
2022/10/22 05:33:37;;;;;;;1.65;1.00;;;;;;;17.78;51.79;93259.63;5050077;28;20033;-87
2022/10/22 05:36:03;;;;;;;1.40;0.82;;;;;;;17.79;52.28;93270.06;5017204;28;20040;-87
2022/10/22 05:38:29;;;;;;;0.57;0.50;;;;;;;17.79;51.92;93253.66;5033762;28;20044;-88
2022/10/22 05:41:01;;;;;;;0.80;0.70;;;;;;;17.78;51.78;93257.66;5048616;28;20033;-94
2022/10/22 05:43:26;;;;;;;1.40;0.95;;;;;;;17.77;52.05;93249.94;5048852;28;20509;-87
2022/10/22 05:45:51;;;;;;;1.02;0.70;;;;;;;17.79;52.00;93244.72;5060835;28;20036;-87
2022/10/22 05:48:17;;;;;;;0.90;0.80;;;;;;;17.80;51.57;93251.66;5034649;28;20040;-87
2022/10/22 05:50:45;;;;;;;1.30;0.80;;;;;;;17.80;51.96;93249.69;5020132;28;20457;-87
2022/10/22 05:53:10;;;;;;;1.30;1.20;;;;;;;17.80;52.08;93244.22;5017085;28;20044;-89
2022/10/22 05:55:35;;;;;;;1.40;0.93;;;;;;;17.79;52.04;93239.25;5027740;28;20103;-87
2022/10/22 05:58:02;;;;;;;1.00;0.88;;;;;;;17.80;51.81;93246.94;5052308;28;20075;-87
2022/10/22 06:00:27;;;;;;;1.20;0.90;;;;;;;17.78;52.26;93235.03;5048988;28;20047;-88
2022/10/22 06:02:53;;;;;;;1.70;1.40;;;;;;;17.77;52.37;93231.56;5017249;28;20401;-87
2022/10/22 06:05:18;;;;;;;2.33;1.00;;;;;;;17.79;52.31;93231.78;5030779;28;20045;-87
2022/10/22 06:07:44;;;;;;;1.33;1.00;;;;;;;17.80;51.78;93229.78;5030569;28;20118;-87
2022/10/22 06:10:17;;;;;;;2.00;0.98;;;;;;;17.79;52.16;93239.25;5031671;28;20033;-87
2022/10/22 06:12:42;;;;;;;1.45;1.17;;;;;;;17.77;52.26;93230.81;5023871;28;20049;-86
2022/10/22 06:15:14;;;;;;;1.33;1.10;;;;;;;17.76;52.25;93238.28;5032715;28;20028;-87
2022/10/22 06:17:39;;;;;;;1.33;1.00;;;;;;;17.77;51.89;93239.00;5033238;28;20032;-88
2022/10/22 06:20:05;;;;;;;2.10;0.95;;;;;;;17.77;51.99;93258.16;5065898;28;20045;-87
2022/10/22 06:22:30;;;;;;;1.85;1.15;;;;;;;17.78;52.06;93254.91;5049064;28;20033;-87
2022/10/22 06:24:56;;;;;;;1.30;1.05;;;;;;;17.80;51.71;93268.06;5033026;28;20349;-87
2022/10/22 06:27:21;;;;;;;1.80;1.40;;;;;;;17.79;52.21;93293.94;5031830;28;21836;-87
2022/10/22 06:29:47;;;;;;;1.85;1.25;;;;;;;17.84;52.03;93306.81;5049981;28;20033;-87
2022/10/22 06:32:12;;;;;;;1.40;1.25;;;;;;;17.80;52.17;93309.84;5045854;28;20052;-87
2022/10/22 06:34:38;;;;;;;1.30;1.00;;;;;;;17.83;52.22;93321.00;5015874;28;20501;-87
2022/10/22 06:37:03;;;;;;;1.90;1.10;;;;;;;17.79;52.04;93332.97;5017412;28;20048;-87
2022/10/22 06:39:29;;;;;;;0.80;0.80;;;;;;;17.80;52.02;93330.97;5029667;28;20067;-92
2022/10/22 06:41:54;;;;;;;1.30;1.20;;;;;;;17.81;52.03;93340.66;5059791;28;20433;-87
2022/10/22 06:44:20;;;;;;;1.35;0.98;;;;;;;17.79;52.09;93343.16;5031748;28;20410;-87
2022/10/22 06:46:48;;;;;;;2.17;0.88;;;;;;;17.77;52.15;93343.66;5048717;28;20506;-87
2022/10/22 06:49:14;;;;;;;1.63;1.50;;;;;;;17.77;52.44;93349.13;5032502;28;20036;-87
2022/10/22 06:51:39;;;;;;;1.73;1.20;;;;;;;17.78;52.04;93349.88;5021723;28;20125;-89
2022/10/22 06:54:04;;;;;;;1.35;0.98;;;;;;;17.78;51.92;93350.59;5040860;28;20056;-87
2022/10/22 06:56:30;;;;;;;1.88;1.20;;;;;;;17.80;51.61;93347.38;5062112;28;20072;-87
2022/10/22 06:58:56;;;;;;;2.25;1.17;;;;;;;17.79;52.78;93352.09;5048704;28;20044;-87
2022/10/22 07:01:24;;;;;;;1.67;1.20;;;;;;;17.78;52.16;93360.81;5032107;28;20500;-87
2022/10/22 07:03:50;;;;;;;1.20;1.05;;;;;;;17.76;52.32;93355.09;5048968;28;20031;-88
2022/10/22 07:06:15;;;;;;;1.38;0.90;;;;;;;17.79;52.25;93356.81;5031861;28;20044;-87
2022/10/22 07:08:41;;;;;;;1.23;0.95;;;;;;;17.78;52.03;93364.28;5032525;28;20045;-87
2022/10/22 07:11:14;;;;;;;1.85;1.38;;;;;;;17.80;52.41;93366.50;5031425;28;20508;-87
2022/10/22 07:13:40;;;;;;;1.50;1.02;;;;;;;17.78;51.80;93369.00;5032801;28;20109;-87
2022/10/22 07:16:05;;;;;;;1.27;1.10;;;;;;;17.78;52.04;93358.06;5015300;28;20451;-88
2022/10/22 07:18:31;;;;;;;0.85;0.80;;;;;;;17.77;51.83;93354.59;5028627;28;20585;-87
2022/10/22 07:20:57;;;;;;;1.23;1.00;;;;;;;17.77;52.23;93371.00;5011994;28;20465;-87
2022/10/22 07:23:22;;;;;;;1.00;0.80;;;;;;;17.79;51.65;93365.03;5024186;28;20496;-87
2022/10/22 07:25:51;;;;;;;1.30;0.98;;;;;;;17.78;52.25;93369.75;5020380;28;20032;-86
2022/10/22 07:28:16;;;;;;;1.45;1.08;;;;;;;17.79;51.91;93363.03;4992846;28;20076;-86
2022/10/22 07:30:41;;;;;;;1.20;1.10;;;;;;;17.80;51.82;93358.31;4993658;28;20038;-89
2022/10/22 07:33:07;;;;;;;1.20;0.90;;;;;;;17.79;51.81;93359.56;5009634;28;20044;-87
2022/10/22 07:35:33;;;;;;;1.08;0.95;;;;;;;17.79;51.90;93362.28;5014056;28;20037;-86
2022/10/22 07:37:59;;;;;;;1.20;0.88;;;;;;;17.78;52.32;93360.81;5013761;28;20110;-88
2022/10/22 07:40:25;;;;;;;1.10;0.93;;;;;;;17.81;52.14;93355.06;5015595;28;20029;-87
2022/10/22 07:42:51;;;;;;;4.95;1.17;;;;;;;17.76;54.51;93366.78;4981793;28;20061;-88
2022/10/22 07:45:16;;;;;;;3.33;1.60;;;;;;;17.75;54.37;93359.81;5032425;28;20029;-87
2022/10/22 07:47:42;;;;;;;1.77;1.40;;;;;;;17.74;54.14;93358.38;5014221;28;20033;-87
2022/10/22 07:50:08;;;;;;;1.40;1.30;;;;;;;17.73;54.08;93359.63;5026803;28;20465;-88
2022/10/22 07:52:33;;;;;;;3.85;2.25;;;;;;;17.74;53.92;93368.56;5017044;28;20506;-87
2022/10/22 07:54:58;;;;;;;2.35;1.85;;;;;;;17.75;54.01;93365.28;5000822;28;20087;-87
2022/10/22 07:57:24;;;;;;;4.05;1.75;;;;;;;17.78;53.49;93371.75;5029237;28;20044;-87
2022/10/22 07:59:49;;;;;;;2.88;1.60;;;;;;;17.76;53.38;93377.72;5017001;28;20033;-90
2022/10/22 08:02:15;;;;;;;1.80;1.27;;;;;;;17.77;53.13;93378.47;5000410;28;20474;-87
2022/10/22 08:04:40;;;;;;;1.70;1.20;;;;;;;17.78;52.95;93379.94;5012420;28;20503;-88
2022/10/22 08:07:06;;;;;;;1.88;1.20;;;;;;;17.75;53.37;93381.69;5031930;28;20045;-89
2022/10/22 08:09:31;;;;;;;1.65;1.05;;;;;;;17.77;52.79;93370.25;5015938;28;20090;-86
2022/10/22 08:11:57;;;;;;;2.28;1.20;;;;;;;17.77;52.69;93378.47;5012666;28;20041;-93
2022/10/22 08:14:22;;;;;;;2.40;1.00;;;;;;;17.77;52.51;93381.19;5028005;28;20037;-88
2022/10/22 08:16:48;;;;;;;1.90;1.10;;;;;;;17.77;53.22;93379.19;4992972;28;20056;-89
2022/10/22 08:19:20;;;;;;;1.95;1.15;;;;;;;17.78;52.79;93386.16;5017671;28;20614;-89
2022/10/22 08:21:45;;;;;;;2.63;1.00;;;;;;;17.78;52.63;93390.88;5030082;28;20061;-88
2022/10/22 08:24:11;;;;;;;4.20;1.48;;;;;;;17.77;53.22;93390.13;4994987;28;20040;-90
2022/10/22 08:26:36;;;;;;;7.45;1.25;;;;;;;17.76;53.00;93391.38;4995787;28;20049;-90
2022/10/22 08:29:03;;;;;;;1.42;1.33;;;;;;;17.76;52.91;93396.84;5017837;28;20520;-88
2022/10/22 08:31:29;;;;;;;2.00;1.40;;;;;;;17.75;53.54;93394.66;5012153;28;20074;-88
2022/10/22 08:33:55;;;;;;;1.40;1.17;;;;;;;17.77;53.17;93392.13;5007272;28;20036;-88
2022/10/22 08:36:20;;;;;;;1.52;1.05;;;;;;;17.74;53.42;93388.44;5022023;28;20607;-91
2022/10/22 08:38:45;;;;;;;2.72;1.17;;;;;;;17.75;52.99;93395.38;5004372;28;20029;-89
2022/10/22 08:41:13;;;;;;;4.28;2.15;;;;;;;17.76;52.66;93394.13;5021868;28;20131;-88
2022/10/22 08:44:00;;;;;;;7.28;2.10;;;;;;;17.77;52.95;93381.94;5025738;28;20053;-87
2022/10/22 08:46:32;;;;;;;3.47;1.60;;;;;;;17.76;52.80;93376.97;5044369;28;20045;-87
2022/10/22 08:48:59;;;;;;;3.58;1.50;;;;;;;17.78;52.84;93372.47;5015442;28;20122;-87
2022/10/22 08:51:26;;;;;;;3.38;1.38;;;;;;;17.77;53.10;93383.94;4994354;28;20029;-86
2022/10/22 08:54:11;;;;;;;2.13;1.20;;;;;;;17.78;53.12;93385.41;5012269;28;20045;-87
2022/10/22 08:56:37;;;;;;;1.60;1.10;;;;;;;17.75;52.63;93392.63;5021054;28;20037;-86
2022/10/22 08:59:25;;;;;;;2.42;1.08;;;;;;;17.77;53.10;93397.59;4995849;28;20037;-87
2022/10/22 09:01:52;;;;;;;2.28;1.10;;;;;;;17.80;52.64;93400.06;5026591;28;20028;-87
2022/10/22 09:04:29;;;;;;;1.55;1.17;;;;;;;17.77;52.73;93403.81;5018372;28;20038;-86
2022/10/22 09:06:56;;;;;;;2.20;1.30;;;;;;;17.80;52.92;93421.19;4989615;28;20041;-94
2022/10/22 09:09:22;;;;;;;1.83;1.30;;;;;;;17.78;53.08;93431.91;4996857;28;20052;-91
2022/10/22 09:11:49;;;;;;;2.67;1.20;;;;;;;17.78;53.09;93421.69;5028730;28;20045;-86
2022/10/22 09:14:18;;;;;;;2.17;0.82;;;;;;;17.76;53.22;93421.47;5032095;28;20040;-86
2022/10/22 09:17:14;;;;;;;2.33;1.20;;;;;;;17.78;52.66;93426.44;5011866;28;20132;-86
2022/10/22 09:20:01;;;;;;;1.58;1.08;;;;;;;17.78;52.68;93427.16;5029505;28;20156;-87
2022/10/22 09:22:38;;;;;;;1.85;1.23;;;;;;;17.78;52.89;93426.44;5032211;28;20080;-86
2022/10/22 09:25:23;;;;;;;1.42;1.20;;;;;;;17.78;53.35;93429.16;5068949;28;20403;-86
2022/10/22 09:27:48;;;;;;;1.40;1.23;;;;;;;17.77;53.06;93438.59;5038329;28;20036;-86
2022/10/22 09:30:20;;;;;;;1.48;1.00;;;;;;;17.76;52.71;93432.41;5036909;28;20102;-86
2022/10/22 09:32:46;;;;;;;1.27;0.95;;;;;;;17.77;52.75;93435.88;5020270;28;20105;-86
2022/10/22 09:35:12;;;;;;;1.40;1.00;;;;;;;17.76;53.02;93448.81;5024300;28;20033;-87
2022/10/22 09:37:47;;;;;;;1.42;1.00;;;;;;;17.77;52.79;93458.50;5015600;28;20119;-86
2022/10/22 09:40:13;;;;;;;1.45;0.93;;;;;;;17.79;52.72;93458.72;5016140;28;20400;-86
2022/10/22 09:42:39;;;;;;;1.33;0.90;;;;;;;17.78;52.78;93461.97;5052309;28;20100;-86
2022/10/22 09:45:05;;;;;;;1.33;1.17;;;;;;;17.76;53.47;93459.75;5019268;28;20457;-87
2022/10/22 09:47:37;;;;;;;1.33;1.00;;;;;;;17.78;52.88;93476.38;5023730;28;20041;-89
2022/10/22 09:50:27;;;;;;;0.60;0.60;;;;;;;17.76;52.85;93478.88;5020563;28;20068;-87
2022/10/22 09:53:16;;;;;;;1.08;0.73;;;;;;;17.76;52.98;93473.41;5049631;28;20466;-86
2022/10/22 09:55:42;;;;;;;1.63;1.08;;;;;;;17.77;53.04;93480.38;5018757;28;20037;-86
2022/10/22 09:58:10;;;;;;;1.63;0.90;;;;;;;17.77;52.72;93479.63;5018666;28;20029;-87
2022/10/22 10:00:37;;;;;;;1.00;0.77;;;;;;;17.77;52.75;93476.88;5000717;28;20091;-91
2022/10/22 10:03:03;;;;;;;1.65;0.95;;;;;;;17.78;53.05;93475.63;5022575;28;20319;-92
2022/10/22 10:05:33;;;;;;;1.13;0.90;;;;;;;17.76;52.57;93481.63;5032480;28;20663;-87
2022/10/22 10:08:00;;;;;;;1.52;1.05;;;;;;;17.77;53.09;93477.63;5020407;28;20033;-88
2022/10/22 10:10:47;;;;;;;0.93;0.73;;;;;;;17.78;52.96;93492.78;5024467;28;20029;-86
2022/10/22 10:13:34;;;;;;;2.03;1.08;;;;;;;17.76;52.75;93492.56;5002789;28;20048;-90
2022/10/22 10:16:22;;;;;;;1.10;0.80;;;;;;;17.76;52.99;93489.81;5062834;28;20044;-88
2022/10/22 10:19:12;;;;;;;1.20;0.90;;;;;;;17.78;53.05;93492.03;5059855;28;20047;-87
2022/10/22 10:22:05;;;;;;;1.38;0.82;;;;;;;17.78;52.63;93492.78;5034715;28;20683;-90
2022/10/22 10:24:44;;;;;;;1.63;1.05;;;;;;;17.77;52.65;93483.09;5027129;28;20099;-87
2022/10/22 10:27:41;;;;;;;1.10;0.70;;;;;;;17.77;52.92;93485.09;5028425;28;20033;-87
2022/10/22 10:30:16;;;;;;;1.08;0.85;;;;;;;17.76;52.92;93483.59;5061109;28;20044;-87
2022/10/22 10:32:56;;;;;;;1.17;0.80;;;;;;;17.78;52.99;93483.84;5075115;28;20407;-87
2022/10/22 10:35:30;;;;;;;0.90;0.80;;;;;;;17.78;52.77;93490.06;5044889;28;20076;-89
2022/10/22 10:38:20;;;;;;;2.47;0.90;;;;;;;17.78;52.82;93486.56;5046679;28;20037;-92
2022/10/22 10:41:07;;;;;;;0.68;0.60;;;;;;;17.77;52.73;93485.09;5010741;28;20447;-87
2022/10/22 10:43:40;;;;;;;1.42;0.82;;;;;;;17.76;52.72;93478.13;5056839;28;20040;-89
2022/10/22 10:46:23;;;;;;;0.70;0.60;;;;;;;17.74;52.81;93492.34;5029736;28;20087;-87
2022/10/22 10:48:52;;;;;;;0.70;0.70;;;;;;;17.78;52.84;93481.84;5024970;28;20057;-90
2022/10/22 10:51:45;;;;;;;1.98;0.95;;;;;;;17.76;53.00;93478.88;5041957;28;20402;-88
2022/10/22 10:54:16;;;;;;;0.98;0.88;;;;;;;17.77;52.82;93480.38;5063110;28;20041;-87
2022/10/22 10:57:19;;;;;;;1.38;1.08;;;;;;;17.76;52.92;93492.56;5046387;28;20040;-87
2022/10/22 11:00:00;;;;;;;1.15;0.60;;;;;;;17.77;53.10;93485.84;5061213;28;20041;-87
2022/10/22 11:02:50;;;;;;;0.80;0.65;;;;;;;17.77;52.90;93504.22;5047230;28;20040;-87
2022/10/22 11:05:42;;;;;;;0.73;0.68;;;;;;;17.79;52.79;93507.22;5014395;28;20049;-90
2022/10/22 11:08:18;;;;;;;3.35;0.80;;;;;;;17.76;52.81;93497.28;5032403;28;20041;-90
2022/10/22 11:11:02;;;;;;;1.25;0.88;;;;;;;17.76;52.82;93503.50;5032783;28;20084;-91
2022/10/22 11:13:39;;;;;;;1.27;0.80;;;;;;;17.77;52.82;93506.97;5051920;28;20399;-88
2022/10/22 11:16:22;;;;;;;1.63;0.60;;;;;;;17.76;52.96;93498.03;5032908;28;20045;-87
2022/10/22 11:19:02;;;;;;;1.90;0.82;;;;;;;17.77;53.07;93490.56;4997889;28;20069;-87
2022/10/22 11:21:42;;;;;;;1.27;0.75;;;;;;;17.78;52.99;93502.97;5060406;28;20102;-86
2022/10/22 11:24:29;;;;;;;1.20;0.70;;;;;;;17.77;52.92;93490.56;5016945;28;20045;-86
2022/10/22 11:27:10;;;;;;;2.15;0.90;;;;;;;17.77;53.05;93487.81;5027012;28;20551;-86
2022/10/22 11:29:40;;;;;;;1.58;0.70;;;;;;;17.77;52.65;93485.09;5021678;28;20487;-87
2022/10/22 11:32:11;;;;;;;2.15;0.80;;;;;;;17.77;53.07;93474.16;5013547;28;20076;-86
2022/10/22 11:34:40;;;;;;;1.17;0.70;;;;;;;17.77;52.84;93474.91;5018877;28;20465;-86
2022/10/22 11:37:06;;;;;;;0.70;0.60;;;;;;;17.78;53.08;93464.72;5033474;28;20029;-87
2022/10/22 11:39:35;;;;;;;1.17;0.70;;;;;;;17.77;52.95;93474.16;4998974;28;20040;-87
2022/10/22 11:42:03;;;;;;;0.80;0.52;;;;;;;17.77;52.96;93474.16;5015116;28;20041;-86
2022/10/22 11:44:31;;;;;;;1.48;0.80;;;;;;;17.79;52.52;93477.88;5014335;28;20044;-86